Pagina principale
METAR-TAF:

METAR-TAF

Aeroporti :

Aeroporto di Taranto-Grottaglie

Taranto, Italia

latitudine: 40-31N, longitudine: 017-24E, altezza: 64 m

Osservazione

Il bollettino è stato emesso 40 minuti fa, alle 12:50 UTC
Vento 7 kt da sud/sud-ovest, variando fra sud/sud-est e sud-ovest
Temperature 34°C
Umidità 41%
Pressione 1016 hPa
Visibilità 10 km o più
Poco nuvoloso ad un'altezza di 3000 ft

METAR: LIBG 221250Z 20007KT 150V230 9999 FEW030 34/19 Q1016

Ora: 15:30 (13:30 UTC)

Previsione

Il bollettino è stato emesso 2 ore e 30 minuti fa, alle 11:00 UTC
Previsione valida dal 22 alle 12 UTC al 22 alle 21 UTC
Vento 10 kt da sud
Visibilità 10 km o più
nessuna nube inferiore a 1500 m e nessun cumulonembo
Evoluzione graduale
dal 22 alle 17 UTC al 22 alle 19 UTC
Vento 5 kt da direzioni variabili

TAF: LIBG 221100Z 2212/2221 19010KT CAVOK BECMG 2217/2219 VRB05KT

Osservazioni e previsioni meteorologiche di più di 4000 aeroporti (messaggi METAR e TAF).

Le stazioni disponibili sono rappresentate dai dischi gialli e rossi sulla carta.

Puntare il mouse per vedere il nome della stazione.

Clicca sopra per visualizzare le osservazioni e previsioni meteorologiche.

Per cambiare la mappa : fare clic sui pulsanti verdi con una croce nera per ingrandire, il pulsante verde con un trattino per diminuire, o sulla freccia verde per le mappe adiacenti.


METAR-TAF: